<?xml version="1.0" encoding="utf-8"?>
<gpx xmlns:xsi="http://www.w3.org/2001/XMLSchema-instance" xmlns:xsd="http://www.w3.org/2001/XMLSchema" version="1.1" creator="Shapelink.com" xmlns="http://www.topografix.com/GPX/1/1" xmlns:gpxtpx="http://www.garmin.com/xmlschemas/TrackPointExtension/v1">
  <metadata>
    <name>Floorball 1.84 km, 2020-01-12</name>
    <desc></desc>
    <author><name>Peter Littke</name></author> 
    <time>2020-01-12T08:39:58Z</time>
  </metadata>
  <trk>
    <name>Floorball 1.84 km, 2020-01-12</name>
    <trkseg>
      <trkpt lat="59.340588" lon="18.085342">
        <ele>26</ele>
        <time>2020-01-12T08:39:58Z</time>
      </trkpt>
      <trkpt lat="59.340547" lon="18.085379">
        <ele>28</ele>
        <time>2020-01-12T08:40:02Z</time>
      </trkpt>
      <trkpt lat="59.340485" lon="18.085508">
        <ele>0</ele>
        <time>2020-01-12T08:40:09Z</time>
      </trkpt>
      <trkpt lat="59.340391" lon="18.085608">
        <ele>0</ele>
        <time>2020-01-12T08:40:12Z</time>
      </trkpt>
      <trkpt lat="59.34045" lon="18.085433">
        <ele>0</ele>
        <time>2020-01-12T08:40:28Z</time>
      </trkpt>
      <trkpt lat="59.340541" lon="18.085351">
        <ele>0</ele>
        <time>2020-01-12T08:40:34Z</time>
      </trkpt>
      <trkpt lat="59.340627" lon="18.085428">
        <ele>0</ele>
        <time>2020-01-12T08:40:41Z</time>
      </trkpt>
      <trkpt lat="59.340536" lon="18.085517">
        <ele>21</ele>
        <time>2020-01-12T08:41:28Z</time>
      </trkpt>
      <trkpt lat="59.340493" lon="18.085696">
        <ele>0</ele>
        <time>2020-01-12T08:41:35Z</time>
      </trkpt>
      <trkpt lat="59.340548" lon="18.085551">
        <ele>0</ele>
        <time>2020-01-12T08:41:42Z</time>
      </trkpt>
      <trkpt lat="59.340467" lon="18.085659">
        <ele>0</ele>
        <time>2020-01-12T08:41:54Z</time>
      </trkpt>
      <trkpt lat="59.340381" lon="18.085567">
        <ele>0</ele>
        <time>2020-01-12T08:42:00Z</time>
      </trkpt>
      <trkpt lat="59.340454" lon="18.085454">
        <ele>20</ele>
        <time>2020-01-12T08:42:12Z</time>
      </trkpt>
      <trkpt lat="59.340544" lon="18.085403">
        <ele>0</ele>
        <time>2020-01-12T08:42:29Z</time>
      </trkpt>
      <trkpt lat="59.340635" lon="18.085425">
        <ele>0</ele>
        <time>2020-01-12T08:42:42Z</time>
      </trkpt>
      <trkpt lat="59.340562" lon="18.085527">
        <ele>24</ele>
        <time>2020-01-12T08:43:04Z</time>
      </trkpt>
      <trkpt lat="59.340629" lon="18.085396">
        <ele>0</ele>
        <time>2020-01-12T08:43:18Z</time>
      </trkpt>
      <trkpt lat="59.340717" lon="18.085453">
        <ele>0</ele>
        <time>2020-01-12T08:43:50Z</time>
      </trkpt>
      <trkpt lat="59.340664" lon="18.085615">
        <ele>23</ele>
        <time>2020-01-12T08:44:09Z</time>
      </trkpt>
      <trkpt lat="59.340722" lon="18.08547">
        <ele>0</ele>
        <time>2020-01-12T08:44:18Z</time>
      </trkpt>
      <trkpt lat="59.340636" lon="18.085541">
        <ele>0</ele>
        <time>2020-01-12T08:44:48Z</time>
      </trkpt>
      <trkpt lat="59.340555" lon="18.085621">
        <ele>0</ele>
        <time>2020-01-12T08:44:54Z</time>
      </trkpt>
      <trkpt lat="59.340551" lon="18.08543">
        <ele>25</ele>
        <time>2020-01-12T08:45:17Z</time>
      </trkpt>
      <trkpt lat="59.340619" lon="18.085308">
        <ele>0</ele>
        <time>2020-01-12T08:45:30Z</time>
      </trkpt>
      <trkpt lat="59.340549" lon="18.085446">
        <ele>0</ele>
        <time>2020-01-12T08:45:40Z</time>
      </trkpt>
      <trkpt lat="59.340659" lon="18.085538">
        <ele>28</ele>
        <time>2020-01-12T08:46:57Z</time>
      </trkpt>
      <trkpt lat="59.340807" lon="18.085539">
        <ele>0</ele>
        <time>2020-01-12T08:46:59Z</time>
      </trkpt>
      <trkpt lat="59.340905" lon="18.085569">
        <ele>0</ele>
        <time>2020-01-12T08:47:00Z</time>
      </trkpt>
      <trkpt lat="59.341064" lon="18.085521">
        <ele>27</ele>
        <time>2020-01-12T08:47:02Z</time>
      </trkpt>
      <trkpt lat="59.341164" lon="18.08553">
        <ele>0</ele>
        <time>2020-01-12T08:47:04Z</time>
      </trkpt>
      <trkpt lat="59.341244" lon="18.085615">
        <ele>27</ele>
        <time>2020-01-12T08:47:07Z</time>
      </trkpt>
      <trkpt lat="59.341326" lon="18.085749">
        <ele>0</ele>
        <time>2020-01-12T08:47:09Z</time>
      </trkpt>
      <trkpt lat="59.341282" lon="18.085917">
        <ele>0</ele>
        <time>2020-01-12T08:47:15Z</time>
      </trkpt>
      <trkpt lat="59.341234" lon="18.085761">
        <ele>0</ele>
        <time>2020-01-12T08:47:28Z</time>
      </trkpt>
      <trkpt lat="59.341144" lon="18.08568">
        <ele>0</ele>
        <time>2020-01-12T08:47:34Z</time>
      </trkpt>
      <trkpt lat="59.341058" lon="18.085765">
        <ele>0</ele>
        <time>2020-01-12T08:47:43Z</time>
      </trkpt>
      <trkpt lat="59.341013" lon="18.085604">
        <ele>0</ele>
        <time>2020-01-12T08:47:59Z</time>
      </trkpt>
      <trkpt lat="59.341031" lon="18.085418">
        <ele>19</ele>
        <time>2020-01-12T08:48:08Z</time>
      </trkpt>
      <trkpt lat="59.34091" lon="18.085362">
        <ele>0</ele>
        <time>2020-01-12T08:48:15Z</time>
      </trkpt>
      <trkpt lat="59.340825" lon="18.085418">
        <ele>0</ele>
        <time>2020-01-12T08:48:20Z</time>
      </trkpt>
      <trkpt lat="59.340732" lon="18.085356">
        <ele>20</ele>
        <time>2020-01-12T08:48:37Z</time>
      </trkpt>
      <trkpt lat="59.340631" lon="18.085384">
        <ele>0</ele>
        <time>2020-01-12T08:48:45Z</time>
      </trkpt>
      <trkpt lat="59.340555" lon="18.085496">
        <ele>18</ele>
        <time>2020-01-12T08:49:12Z</time>
      </trkpt>
      <trkpt lat="59.340512" lon="18.085658">
        <ele>0</ele>
        <time>2020-01-12T08:49:45Z</time>
      </trkpt>
      <trkpt lat="59.340569" lon="18.085511">
        <ele>0</ele>
        <time>2020-01-12T08:50:00Z</time>
      </trkpt>
      <trkpt lat="59.340514" lon="18.085693">
        <ele>10</ele>
        <time>2020-01-12T08:50:22Z</time>
      </trkpt>
      <trkpt lat="59.340425" lon="18.085754">
        <ele>0</ele>
        <time>2020-01-12T08:50:29Z</time>
      </trkpt>
      <trkpt lat="59.340455" lon="18.085587">
        <ele>0</ele>
        <time>2020-01-12T08:50:35Z</time>
      </trkpt>
      <trkpt lat="59.340468" lon="18.085398">
        <ele>0</ele>
        <time>2020-01-12T08:50:39Z</time>
      </trkpt>
      <trkpt lat="59.34055" lon="18.085309">
        <ele>0</ele>
        <time>2020-01-12T08:50:44Z</time>
      </trkpt>
      <trkpt lat="59.340468" lon="18.085397">
        <ele>16</ele>
        <time>2020-01-12T08:51:29Z</time>
      </trkpt>
      <trkpt lat="59.340554" lon="18.085463">
        <ele>0</ele>
        <time>2020-01-12T08:51:46Z</time>
      </trkpt>
      <trkpt lat="59.340639" lon="18.085546">
        <ele>0</ele>
        <time>2020-01-12T08:51:54Z</time>
      </trkpt>
      <trkpt lat="59.340658" lon="18.085366">
        <ele>16</ele>
        <time>2020-01-12T08:52:06Z</time>
      </trkpt>
      <trkpt lat="59.340592" lon="18.085515">
        <ele>0</ele>
        <time>2020-01-12T08:52:31Z</time>
      </trkpt>
      <trkpt lat="59.340491" lon="18.085611">
        <ele>0</ele>
        <time>2020-01-12T08:52:35Z</time>
      </trkpt>
      <trkpt lat="59.340534" lon="18.085455">
        <ele>0</ele>
        <time>2020-01-12T08:52:51Z</time>
      </trkpt>
      <trkpt lat="59.340616" lon="18.085362">
        <ele>0</ele>
        <time>2020-01-12T08:53:00Z</time>
      </trkpt>
      <trkpt lat="59.340539" lon="18.085459">
        <ele>14</ele>
        <time>2020-01-12T08:53:19Z</time>
      </trkpt>
      <trkpt lat="59.340452" lon="18.085416">
        <ele>0</ele>
        <time>2020-01-12T08:53:26Z</time>
      </trkpt>
      <trkpt lat="59.340535" lon="18.085522">
        <ele>0</ele>
        <time>2020-01-12T08:53:39Z</time>
      </trkpt>
      <trkpt lat="59.340495" lon="18.085357">
        <ele>16</ele>
        <time>2020-01-12T08:54:11Z</time>
      </trkpt>
      <trkpt lat="59.340561" lon="18.085228">
        <ele>0</ele>
        <time>2020-01-12T08:54:19Z</time>
      </trkpt>
      <trkpt lat="59.340623" lon="18.085387">
        <ele>0</ele>
        <time>2020-01-12T08:54:26Z</time>
      </trkpt>
      <trkpt lat="59.340654" lon="18.085567">
        <ele>20</ele>
        <time>2020-01-12T08:55:24Z</time>
      </trkpt>
      <trkpt lat="59.340755" lon="18.085531">
        <ele>0</ele>
        <time>2020-01-12T08:55:31Z</time>
      </trkpt>
      <trkpt lat="59.340796" lon="18.08535">
        <ele>0</ele>
        <time>2020-01-12T08:55:46Z</time>
      </trkpt>
      <trkpt lat="59.3409" lon="18.085359">
        <ele>0</ele>
        <time>2020-01-12T08:55:50Z</time>
      </trkpt>
      <trkpt lat="59.340823" lon="18.085493">
        <ele>0</ele>
        <time>2020-01-12T08:56:01Z</time>
      </trkpt>
      <trkpt lat="59.340769" lon="18.085328">
        <ele>19</ele>
        <time>2020-01-12T08:56:15Z</time>
      </trkpt>
      <trkpt lat="59.340668" lon="18.08531">
        <ele>0</ele>
        <time>2020-01-12T08:56:19Z</time>
      </trkpt>
      <trkpt lat="59.34058" lon="18.085282">
        <ele>0</ele>
        <time>2020-01-12T08:56:29Z</time>
      </trkpt>
      <trkpt lat="59.340493" lon="18.085369">
        <ele>0</ele>
        <time>2020-01-12T08:56:59Z</time>
      </trkpt>
      <trkpt lat="59.340544" lon="18.085222">
        <ele>24</ele>
        <time>2020-01-12T08:57:39Z</time>
      </trkpt>
      <trkpt lat="59.340632" lon="18.085268">
        <ele>0</ele>
        <time>2020-01-12T08:57:49Z</time>
      </trkpt>
      <trkpt lat="59.340595" lon="18.085479">
        <ele>0</ele>
        <time>2020-01-12T08:57:56Z</time>
      </trkpt>
      <trkpt lat="59.340613" lon="18.085682">
        <ele>0</ele>
        <time>2020-01-12T08:58:01Z</time>
      </trkpt>
      <trkpt lat="59.340647" lon="18.085507">
        <ele>30</ele>
        <time>2020-01-12T08:58:18Z</time>
      </trkpt>
      <trkpt lat="59.340586" lon="18.085356">
        <ele>0</ele>
        <time>2020-01-12T08:58:29Z</time>
      </trkpt>
      <trkpt lat="59.340532" lon="18.085503">
        <ele>0</ele>
        <time>2020-01-12T08:58:40Z</time>
      </trkpt>
      <trkpt lat="59.340471" lon="18.085637">
        <ele>0</ele>
        <time>2020-01-12T08:58:49Z</time>
      </trkpt>
      <trkpt lat="59.340568" lon="18.085634">
        <ele>33</ele>
        <time>2020-01-12T08:59:05Z</time>
      </trkpt>
      <trkpt lat="59.340494" lon="18.085528">
        <ele>0</ele>
        <time>2020-01-12T08:59:29Z</time>
      </trkpt>
      <trkpt lat="59.340418" lon="18.085692">
        <ele>33</ele>
        <time>2020-01-12T08:59:38Z</time>
      </trkpt>
      <trkpt lat="59.34034" lon="18.085603">
        <ele>0</ele>
        <time>2020-01-12T08:59:46Z</time>
      </trkpt>
      <trkpt lat="59.340424" lon="18.085697">
        <ele>32</ele>
        <time>2020-01-12T09:00:04Z</time>
      </trkpt>
      <trkpt lat="59.340468" lon="18.085851">
        <ele>33</ele>
        <time>2020-01-12T09:00:08Z</time>
      </trkpt>
      <trkpt lat="59.340581" lon="18.085852">
        <ele>34</ele>
        <time>2020-01-12T09:00:48Z</time>
      </trkpt>
      <trkpt lat="59.340669" lon="18.085814">
        <ele>0</ele>
        <time>2020-01-12T09:00:54Z</time>
      </trkpt>
      <trkpt lat="59.340617" lon="18.085668">
        <ele>34</ele>
        <time>2020-01-12T09:01:25Z</time>
      </trkpt>
      <trkpt lat="59.340626" lon="18.085474">
        <ele>0</ele>
        <time>2020-01-12T09:01:32Z</time>
      </trkpt>
      <trkpt lat="59.340706" lon="18.085372">
        <ele>0</ele>
        <time>2020-01-12T09:01:41Z</time>
      </trkpt>
      <trkpt lat="59.341317" lon="18.08346">
        <ele>29</ele>
        <time>2020-01-12T09:03:35Z</time>
      </trkpt>
      <trkpt lat="59.341233" lon="18.083344">
        <ele>0</ele>
        <time>2020-01-12T09:03:41Z</time>
      </trkpt>
      <trkpt lat="59.34122" lon="18.08386">
        <ele>0</ele>
        <time>2020-01-12T09:03:52Z</time>
      </trkpt>
      <trkpt lat="59.341228" lon="18.084066">
        <ele>0</ele>
        <time>2020-01-12T09:03:59Z</time>
      </trkpt>
      <trkpt lat="59.341298" lon="18.084321">
        <ele>31</ele>
        <time>2020-01-12T09:04:06Z</time>
      </trkpt>
      <trkpt lat="59.340776" lon="18.084761">
        <ele>33</ele>
        <time>2020-01-12T09:04:38Z</time>
      </trkpt>
      <trkpt lat="59.340711" lon="18.084934">
        <ele>0</ele>
        <time>2020-01-12T09:04:40Z</time>
      </trkpt>
      <trkpt lat="59.340634" lon="18.085088">
        <ele>0</ele>
        <time>2020-01-12T09:04:43Z</time>
      </trkpt>
      <trkpt lat="59.340615" lon="18.085274">
        <ele>33</ele>
        <time>2020-01-12T09:04:48Z</time>
      </trkpt>
      <trkpt lat="59.340678" lon="18.085435">
        <ele>0</ele>
        <time>2020-01-12T09:04:52Z</time>
      </trkpt>
      <trkpt lat="59.340599" lon="18.085538">
        <ele>30</ele>
        <time>2020-01-12T09:05:18Z</time>
      </trkpt>
      <trkpt lat="59.340516" lon="18.085444">
        <ele>0</ele>
        <time>2020-01-12T09:05:59Z</time>
      </trkpt>
      <trkpt lat="59.340569" lon="18.085273">
        <ele>34</ele>
        <time>2020-01-12T09:06:32Z</time>
      </trkpt>
      <trkpt lat="59.340678" lon="18.085176">
        <ele>33</ele>
        <time>2020-01-12T09:06:38Z</time>
      </trkpt>
      <trkpt lat="59.3406" lon="18.08506">
        <ele>0</ele>
        <time>2020-01-12T09:06:46Z</time>
      </trkpt>
      <trkpt lat="59.340551" lon="18.08521">
        <ele>0</ele>
        <time>2020-01-12T09:06:52Z</time>
      </trkpt>
      <trkpt lat="59.340637" lon="18.085321">
        <ele>0</ele>
        <time>2020-01-12T09:06:56Z</time>
      </trkpt>
      <trkpt lat="59.340591" lon="18.085544">
        <ele>30</ele>
        <time>2020-01-12T09:07:02Z</time>
      </trkpt>
      <trkpt lat="59.340491" lon="18.085506">
        <ele>28</ele>
        <time>2020-01-12T09:07:28Z</time>
      </trkpt>
      <trkpt lat="59.340389" lon="18.085473">
        <ele>0</ele>
        <time>2020-01-12T09:07:34Z</time>
      </trkpt>
      <trkpt lat="59.340343" lon="18.085634">
        <ele>30</ele>
        <time>2020-01-12T09:08:04Z</time>
      </trkpt>
      <trkpt lat="59.340258" lon="18.08575">
        <ele>0</ele>
        <time>2020-01-12T09:08:11Z</time>
      </trkpt>
      <trkpt lat="59.340361" lon="18.085648">
        <ele>0</ele>
        <time>2020-01-12T09:08:23Z</time>
      </trkpt>
      <trkpt lat="59.340431" lon="18.085519">
        <ele>0</ele>
        <time>2020-01-12T09:08:30Z</time>
      </trkpt>
      <trkpt lat="59.340522" lon="18.085464">
        <ele>27</ele>
        <time>2020-01-12T09:08:38Z</time>
      </trkpt>
      <trkpt lat="59.340561" lon="18.0853">
        <ele>27</ele>
        <time>2020-01-12T09:08:48Z</time>
      </trkpt>
      <trkpt lat="59.340509" lon="18.085453">
        <ele>26</ele>
        <time>2020-01-12T09:08:58Z</time>
      </trkpt>
      <trkpt lat="59.340458" lon="18.085613">
        <ele>24</ele>
        <time>2020-01-12T09:09:10Z</time>
      </trkpt>
      <trkpt lat="59.340495" lon="18.085798">
        <ele>0</ele>
        <time>2020-01-12T09:09:19Z</time>
      </trkpt>
      <trkpt lat="59.340501" lon="18.085553">
        <ele>0</ele>
        <time>2020-01-12T09:09:36Z</time>
      </trkpt>
      <trkpt lat="59.340414" lon="18.085678">
        <ele>0</ele>
        <time>2020-01-12T09:10:00Z</time>
      </trkpt>
      <trkpt lat="59.340359" lon="18.085529">
        <ele>26</ele>
        <time>2020-01-12T09:10:11Z</time>
      </trkpt>
      <trkpt lat="59.340452" lon="18.08548">
        <ele>26</ele>
        <time>2020-01-12T09:10:18Z</time>
      </trkpt>
      <trkpt lat="59.340545" lon="18.085507">
        <ele>0</ele>
        <time>2020-01-12T09:10:29Z</time>
      </trkpt>
      <trkpt lat="59.340516" lon="18.085675">
        <ele>0</ele>
        <time>2020-01-12T09:10:42Z</time>
      </trkpt>
      <trkpt lat="59.340511" lon="18.085481">
        <ele>25</ele>
        <time>2020-01-12T09:11:14Z</time>
      </trkpt>
      <trkpt lat="59.340462" lon="18.08532">
        <ele>0</ele>
        <time>2020-01-12T09:11:23Z</time>
      </trkpt>
      <trkpt lat="59.340439" lon="18.085499">
        <ele>0</ele>
        <time>2020-01-12T09:11:35Z</time>
      </trkpt>
      <trkpt lat="59.340453" lon="18.085701">
        <ele>23</ele>
        <time>2020-01-12T09:11:48Z</time>
      </trkpt>
      <trkpt lat="59.340375" lon="18.085584">
        <ele>22</ele>
        <time>2020-01-12T09:12:08Z</time>
      </trkpt>
      <trkpt lat="59.340362" lon="18.08541">
        <ele>20</ele>
        <time>2020-01-12T09:12:18Z</time>
      </trkpt>
      <trkpt lat="59.340346" lon="18.085224">
        <ele>0</ele>
        <time>2020-01-12T09:12:24Z</time>
      </trkpt>
      <trkpt lat="59.340391" lon="18.085472">
        <ele>22</ele>
        <time>2020-01-12T09:12:48Z</time>
      </trkpt>
      <trkpt lat="59.340455" lon="18.085602">
        <ele>0</ele>
        <time>2020-01-12T09:12:54Z</time>
      </trkpt>
      <trkpt lat="59.340524" lon="18.085474">
        <ele>22</ele>
        <time>2020-01-12T09:13:06Z</time>
      </trkpt>
      <trkpt lat="59.340399" lon="18.085443">
        <ele>0</ele>
        <time>2020-01-12T09:13:31Z</time>
      </trkpt>
      <trkpt lat="59.340509" lon="18.085525">
        <ele>0</ele>
        <time>2020-01-12T09:13:53Z</time>
      </trkpt>
      <trkpt lat="59.340407" lon="18.085487">
        <ele>22</ele>
        <time>2020-01-12T09:14:48Z</time>
      </trkpt>
      <trkpt lat="59.340325" lon="18.085389">
        <ele>0</ele>
        <time>2020-01-12T09:14:55Z</time>
      </trkpt>
      <trkpt lat="59.340425" lon="18.08538">
        <ele>19</ele>
        <time>2020-01-12T09:15:34Z</time>
      </trkpt>
      <trkpt lat="59.340337" lon="18.085327">
        <ele>12</ele>
        <time>2020-01-12T09:16:49Z</time>
      </trkpt>
      <trkpt lat="59.34039" lon="18.085173">
        <ele>10</ele>
        <time>2020-01-12T09:17:41Z</time>
      </trkpt>
      <trkpt lat="59.340481" lon="18.085192">
        <ele>0</ele>
        <time>2020-01-12T09:18:00Z</time>
      </trkpt>
      <trkpt lat="59.340439" lon="18.085362">
        <ele>6</ele>
        <time>2020-01-12T09:18:35Z</time>
      </trkpt>
      <trkpt lat="59.340428" lon="18.085544">
        <ele>0</ele>
        <time>2020-01-12T09:18:43Z</time>
      </trkpt>
      <trkpt lat="59.340425" lon="18.085361">
        <ele>7</ele>
        <time>2020-01-12T09:19:28Z</time>
      </trkpt>
      <trkpt lat="59.340507" lon="18.085443">
        <ele>10</ele>
        <time>2020-01-12T09:21:39Z</time>
      </trkpt>
      <trkpt lat="59.340434" lon="18.0853">
        <ele>9</ele>
        <time>2020-01-12T09:22:04Z</time>
      </trkpt>
    </trkseg>
  </trk>
</gpx>